createdAt,value
2022-12-08T00:00:09.855Z,22.20
2022-12-08T00:03:01.158Z,18.60
2022-12-08T00:05:49.054Z,21.40
2022-12-08T00:08:35.791Z,18.30
2022-12-08T00:11:04.418Z,13.70
2022-12-08T00:13:33.090Z,17.90
2022-12-08T00:16:01.789Z,20.70
2022-12-08T00:18:30.439Z,20.60
2022-12-08T00:20:59.880Z,19.30
2022-12-08T00:23:28.451Z,21.20
2022-12-08T00:26:01.053Z,20.30
2022-12-08T00:28:29.622Z,23.10
2022-12-08T00:30:58.355Z,26.50
2022-12-08T00:33:28.135Z,21.90
2022-12-08T00:35:56.709Z,21.20
2022-12-08T00:38:25.546Z,23.80
2022-12-08T00:40:54.278Z,21.00
2022-12-08T00:43:22.843Z,17.90
2022-12-08T00:45:51.568Z,16.20
2022-12-08T00:48:20.189Z,13.50
2022-12-08T00:50:48.801Z,15.70
2022-12-08T00:53:17.325Z,12.50
2022-12-08T00:55:45.841Z,14.80
2022-12-08T00:58:14.472Z,13.60
2022-12-08T01:00:43.758Z,13.20
2022-12-08T01:03:13.171Z,12.30
2022-12-08T01:05:41.729Z,17.00
2022-12-08T01:08:10.355Z,17.40
2022-12-08T01:10:40.115Z,21.40
2022-12-08T01:13:08.686Z,24.50
2022-12-08T01:15:38.217Z,22.10
2022-12-08T01:18:06.902Z,19.50
2022-12-08T01:20:35.521Z,22.40
2022-12-08T01:23:04.142Z,18.60
2022-12-08T01:25:35.167Z,12.70
2022-12-08T01:28:03.993Z,14.70
2022-12-08T01:30:32.694Z,13.20
2022-12-08T01:33:02.184Z,10.70
2022-12-08T01:35:31.391Z,11.40
2022-12-08T01:38:00.082Z,12.00
2022-12-08T01:40:28.642Z,10.40
2022-12-08T01:42:57.397Z,11.40
2022-12-08T01:45:28.347Z,10.90
2022-12-08T01:48:00.256Z,12.90
2022-12-08T01:50:30.328Z,9.70
2022-12-08T01:53:01.957Z,11.80
2022-12-08T01:55:36.732Z,12.50
2022-12-08T01:58:12.976Z,11.60
2022-12-08T02:00:41.803Z,9.90
2022-12-08T02:03:14.265Z,12.10
2022-12-08T02:05:43.684Z,20.00
2022-12-08T02:08:14.786Z,12.30
2022-12-08T02:10:44.123Z,14.40
2022-12-08T02:13:16.254Z,11.90
2022-12-08T07:16:13.297Z,23.20
2022-12-08T07:18:45.440Z,23.30
2022-12-08T07:21:18.241Z,27.30
2022-12-08T07:23:57.424Z,27.20
2022-12-08T07:26:30.214Z,29.90
2022-12-08T07:29:02.848Z,27.00
2022-12-08T07:31:35.221Z,33.00
2022-12-08T07:34:07.455Z,27.00
2022-12-08T07:41:43.028Z,23.20
2022-12-08T07:46:46.058Z,31.60
2022-12-08T07:49:18.343Z,30.90
2022-12-08T07:54:21.025Z,30.80
2022-12-08T07:59:23.766Z,30.40
2022-12-08T08:02:13.520Z,27.10
2022-12-08T08:04:50.718Z,25.40
2022-12-08T08:07:22.846Z,24.70
2022-12-08T08:09:55.169Z,30.00
2022-12-08T08:12:32.024Z,25.00
2022-12-08T08:15:07.470Z,29.30
2022-12-08T08:17:40.411Z,24.90
2022-12-08T08:20:14.571Z,26.50
2022-12-08T08:22:50.213Z,23.60
2022-12-08T08:25:23.625Z,27.30
2022-12-08T08:27:56.842Z,23.20
2022-12-08T08:30:33.225Z,23.30
2022-12-08T08:33:05.614Z,24.90
2022-12-08T08:35:38.699Z,32.10
2022-12-08T08:38:10.748Z,27.40
2022-12-08T08:40:43.014Z,32.90
2022-12-08T08:46:11.226Z,30.20
2022-12-08T08:48:43.451Z,26.50
2022-12-08T08:51:16.723Z,27.70
2022-12-08T08:53:48.899Z,30.50
2022-12-08T08:56:21.858Z,25.10
2022-12-08T08:58:55.140Z,25.80
2022-12-08T09:01:28.994Z,27.40
2022-12-08T09:04:01.461Z,27.80
2022-12-08T09:06:33.768Z,27.40
2022-12-08T09:11:36.390Z,33.70
2022-12-08T09:16:42.339Z,21.30
2022-12-08T09:19:15.151Z,22.60
2022-12-08T09:21:47.491Z,22.90
2022-12-08T09:26:50.616Z,23.00
2022-12-08T09:29:22.788Z,26.10
2022-12-08T09:31:56.486Z,30.70
2022-12-08T09:34:28.725Z,22.30
2022-12-08T09:39:31.638Z,25.50
2022-12-08T09:44:57.287Z,29.80
2022-12-08T09:47:36.082Z,35.80
2022-12-08T09:50:13.534Z,37.80
2022-12-08T09:52:48.990Z,31.90
2022-12-08T09:55:45.327Z,31.70
2022-12-08T09:58:26.909Z,38.60
2022-12-08T10:00:59.301Z,36.90
2022-12-08T10:03:32.892Z,32.80
2022-12-08T10:06:09.273Z,29.10
2022-12-08T10:08:49.246Z,30.60
2022-12-08T10:11:30.519Z,27.30
2022-12-08T10:14:15.750Z,22.70
2022-12-08T10:16:53.426Z,27.60
2022-12-08T10:19:28.689Z,26.00
2022-12-08T10:22:01.074Z,26.90
2022-12-08T10:24:40.837Z,27.70
2022-12-08T10:27:15.000Z,29.80
2022-12-08T10:29:47.241Z,40.30
2022-12-08T10:32:23.597Z,31.70
2022-12-08T10:35:08.607Z,37.90
2022-12-08T10:37:41.201Z,28.90
2022-12-08T10:40:18.044Z,27.60
2022-12-08T10:42:53.435Z,27.30
2022-12-08T10:45:29.490Z,24.40
2022-12-08T10:48:04.874Z,24.40
2022-12-08T10:50:43.043Z,26.30
2022-12-08T10:53:20.928Z,28.00
2022-12-08T10:56:06.293Z,35.20
2022-12-08T10:58:40.936Z,30.10
2022-12-08T11:01:18.102Z,30.30
2022-12-08T11:03:53.058Z,24.40
2022-12-08T11:06:35.461Z,27.60
2022-12-08T11:11:49.381Z,20.40
2022-12-08T11:14:24.871Z,27.30
2022-12-08T11:17:04.654Z,22.30
2022-12-08T11:19:40.450Z,28.50
2022-12-08T11:22:25.995Z,25.60
2022-12-08T11:25:04.103Z,24.60
2022-12-08T11:27:38.216Z,27.90
2022-12-08T11:30:18.154Z,25.60
2022-12-08T11:32:55.889Z,25.90
2022-12-08T11:35:31.488Z,23.10
2022-12-08T11:38:21.008Z,26.20
2022-12-08T11:40:57.027Z,23.00
2022-12-08T11:43:37.645Z,22.60
2022-12-08T11:46:17.247Z,25.00
2022-12-08T11:48:54.529Z,24.00
2022-12-08T11:51:33.366Z,23.10
2022-12-08T11:54:19.062Z,22.30
2022-12-08T11:56:54.130Z,21.40
2022-12-08T11:59:30.704Z,18.80
2022-12-08T12:02:05.469Z,19.80
2022-12-08T12:04:45.755Z,19.70
2022-12-08T12:07:41.715Z,19.00
2022-12-08T12:10:28.219Z,22.20
2022-12-08T12:13:13.762Z,19.10
2022-12-08T12:16:19.911Z,25.60
2022-12-08T12:18:56.615Z,26.00
2022-12-08T12:21:34.883Z,34.70
2022-12-08T12:24:11.569Z,29.90
2022-12-08T12:26:57.090Z,22.10
2022-12-08T12:29:32.113Z,23.10
2022-12-08T12:32:07.421Z,26.40
2022-12-08T12:34:49.932Z,23.40
2022-12-08T12:37:25.749Z,24.60
2022-12-08T12:40:05.305Z,21.20
2022-12-08T12:42:50.723Z,24.60
2022-12-08T12:45:33.322Z,20.90
2022-12-08T12:48:25.120Z,20.30
2022-12-08T12:50:57.379Z,22.50
2022-12-08T12:56:54.075Z,20.60
2022-12-08T12:59:43.668Z,25.30
2022-12-08T13:02:25.809Z,18.20
2022-12-08T13:05:13.149Z,26.50
2022-12-08T13:07:50.948Z,25.00
2022-12-08T13:10:26.495Z,27.70
2022-12-08T13:13:09.118Z,29.40
2022-12-08T13:15:48.832Z,25.50
2022-12-08T13:18:26.170Z,24.60
2022-12-08T13:21:05.761Z,24.90
2022-12-08T13:23:49.542Z,36.70
2022-12-08T13:26:24.073Z,26.00
2022-12-08T13:29:18.025Z,27.60
2022-12-08T13:31:52.627Z,26.20
2022-12-08T13:34:31.340Z,28.30
2022-12-08T13:37:19.983Z,27.40
2022-12-08T13:39:56.419Z,27.60
2022-12-08T13:42:41.965Z,38.60
2022-12-08T13:48:35.335Z,58.40
2022-12-08T13:57:28.865Z,31.00
2022-12-08T14:00:05.940Z,29.90
2022-12-08T14:02:48.104Z,27.70
2022-12-08T14:05:47.486Z,30.50
2022-12-08T14:08:57.467Z,32.70
2022-12-08T14:11:37.007Z,35.10
2022-12-08T14:14:27.224Z,34.70
2022-12-08T14:17:07.170Z,45.40
2022-12-08T14:19:39.829Z,55.40
2022-12-08T14:22:16.593Z,53.70
2022-12-08T14:24:51.622Z,47.70
2022-12-08T14:27:25.390Z,54.20
2022-12-08T14:30:01.321Z,43.90
2022-12-08T14:32:35.597Z,50.00
2022-12-08T14:35:23.531Z,39.50
2022-12-08T14:37:58.711Z,32.10
2022-12-08T14:40:34.942Z,37.20
2022-12-08T14:43:18.775Z,38.10
2022-12-08T14:45:53.647Z,43.20
2022-12-08T14:48:29.084Z,41.60
2022-12-08T14:51:08.867Z,41.00
2022-12-08T14:53:43.588Z,28.60
2022-12-08T14:56:23.807Z,28.10
2022-12-08T14:59:07.849Z,29.30
2022-12-08T15:01:41.188Z,30.90
2022-12-08T15:04:20.272Z,32.20
2022-12-08T15:07:01.373Z,40.50
2022-12-08T15:09:37.447Z,35.10
2022-12-08T15:12:26.624Z,32.20
2022-12-08T15:15:03.427Z,37.50
2022-12-08T15:17:43.661Z,48.10
2022-12-08T15:20:35.621Z,72.30
2022-12-08T15:23:12.995Z,62.40
2022-12-08T15:25:45.823Z,60.10
2022-12-08T15:28:22.054Z,68.00
2022-12-08T15:30:57.146Z,100.10
2022-12-08T15:33:29.956Z,84.00
2022-12-08T15:36:02.126Z,94.90
2022-12-08T15:38:35.213Z,84.80
2022-12-08T15:41:13.038Z,59.40
2022-12-08T15:43:47.016Z,52.10
2022-12-08T15:48:57.796Z,66.80
2022-12-08T15:51:37.048Z,68.20
2022-12-08T15:54:09.763Z,60.80
2022-12-08T15:57:10.594Z,77.20
2022-12-08T15:59:39.029Z,60.40
2022-12-08T16:02:16.641Z,73.30
2022-12-08T16:07:44.623Z,64.20
2022-12-08T16:10:21.068Z,78.80
2022-12-08T16:13:55.529Z,109.90
2022-12-08T16:16:04.036Z,123.40
2022-12-08T16:18:40.109Z,119.60
2022-12-08T16:21:31.528Z,97.60
2022-12-08T16:24:09.393Z,70.10
2022-12-08T16:29:34.459Z,46.40
2022-12-08T16:32:07.015Z,39.30
2022-12-08T16:34:39.132Z,71.00
2022-12-08T16:37:15.238Z,58.90
2022-12-08T16:39:50.197Z,81.60
2022-12-08T16:42:43.740Z,86.10
2022-12-08T16:45:19.385Z,84.80
2022-12-08T16:47:53.438Z,108.90
2022-12-08T16:50:27.792Z,76.90
2022-12-08T16:53:01.942Z,75.40
2022-12-08T16:55:34.674Z,71.90
2022-12-08T16:58:07.238Z,69.90
2022-12-08T17:00:39.463Z,82.90
2022-12-08T17:05:45.021Z,83.40
2022-12-08T17:08:17.561Z,86.90
2022-12-08T17:11:07.436Z,103.20
2022-12-08T17:13:41.773Z,107.40
2022-12-08T17:16:17.781Z,86.90
2022-12-08T17:18:50.557Z,99.00
2022-12-08T17:21:23.018Z,92.60
2022-12-08T17:23:55.089Z,94.60
2022-12-08T17:26:27.261Z,79.50
2022-12-08T17:29:01.418Z,68.20
2022-12-08T17:31:34.835Z,63.50
2022-12-08T17:34:10.272Z,59.40
2022-12-08T17:36:42.622Z,65.30
2022-12-08T17:39:18.731Z,63.90
2022-12-08T17:41:51.445Z,92.50
2022-12-08T17:46:54.136Z,247.70
2022-12-08T17:49:29.690Z,113.80
2022-12-08T17:52:03.777Z,136.20
2022-12-08T17:54:36.614Z,77.00
2022-12-08T17:57:09.062Z,65.50
2022-12-08T17:59:41.839Z,71.40
2022-12-08T18:02:14.203Z,88.50
2022-12-08T18:04:46.612Z,104.30
2022-12-08T18:07:18.801Z,132.00
2022-12-08T18:12:23.819Z,77.40
2022-12-08T18:14:56.547Z,70.70
2022-12-08T18:19:59.317Z,48.70
2022-12-08T18:22:31.447Z,90.70
2022-12-08T18:27:37.382Z,118.50
2022-12-08T18:30:18.291Z,83.40
2022-12-08T18:32:54.286Z,79.50
2022-12-08T18:35:30.016Z,56.60
2022-12-08T18:38:02.658Z,62.70
2022-12-08T18:40:35.110Z,70.40
2022-12-08T18:43:07.787Z,95.90
2022-12-08T18:45:40.105Z,85.80
2022-12-08T18:48:14.735Z,75.50
2022-12-08T18:50:46.862Z,77.90
2022-12-08T18:55:51.178Z,74.10
2022-12-08T18:58:23.439Z,85.30
2022-12-08T19:00:55.852Z,73.30
2022-12-08T19:03:28.175Z,52.50
2022-12-08T19:06:06.576Z,65.00
2022-12-08T19:08:38.968Z,59.10
2022-12-08T19:11:35.111Z,51.80
2022-12-08T19:14:07.872Z,45.20
2022-12-08T19:16:40.320Z,48.90
2022-12-08T19:19:13.533Z,49.70
2022-12-08T19:24:19.386Z,39.80
2022-12-08T19:26:52.005Z,40.00
2022-12-08T19:29:24.032Z,47.00
2022-12-08T19:31:56.871Z,49.10
2022-12-08T19:34:29.359Z,49.30
2022-12-08T19:37:01.750Z,42.80
2022-12-08T19:39:51.594Z,44.90
2022-12-08T19:42:42.444Z,57.50
2022-12-08T19:45:18.186Z,75.20
2022-12-08T19:47:51.125Z,70.20
2022-12-08T19:50:39.435Z,59.70
2022-12-08T19:53:14.552Z,49.90
2022-12-08T19:55:49.082Z,55.80
2022-12-08T19:58:21.195Z,49.40
2022-12-08T20:03:24.448Z,36.80
2022-12-08T20:05:56.658Z,35.20
2022-12-08T20:08:29.064Z,39.00
2022-12-08T20:13:48.772Z,31.50
2022-12-08T20:16:21.373Z,31.70
2022-12-08T20:18:54.804Z,34.60
2022-12-08T20:21:27.206Z,35.60
2022-12-08T20:23:59.913Z,74.70
2022-12-08T20:26:32.239Z,90.30
2022-12-08T20:29:05.291Z,75.90
2022-12-08T20:31:38.624Z,74.40
2022-12-08T20:34:16.366Z,53.90
2022-12-08T20:36:50.765Z,74.10
2022-12-08T20:39:27.491Z,67.50
2022-12-08T20:42:00.363Z,95.60
2022-12-08T20:44:33.334Z,124.50
2022-12-08T20:47:05.686Z,114.90
2022-12-08T20:49:38.666Z,102.50
2022-12-08T20:52:11.586Z,72.70
2022-12-08T20:54:43.930Z,70.40
2022-12-08T20:57:16.318Z,62.80
2022-12-08T20:59:48.620Z,54.30
2022-12-08T21:04:51.971Z,56.00
2022-12-08T21:07:24.419Z,71.70
2022-12-08T21:09:56.677Z,102.40
2022-12-08T21:14:59.885Z,90.00
2022-12-08T21:17:32.296Z,81.60
2022-12-08T21:20:05.481Z,90.60
2022-12-08T21:22:39.980Z,160.30
2022-12-08T21:25:12.906Z,121.70
2022-12-08T21:27:45.409Z,98.30
2022-12-08T21:30:19.070Z,83.50
2022-12-08T21:32:51.360Z,70.20
2022-12-08T21:35:23.735Z,60.40
2022-12-08T21:37:56.190Z,84.60
2022-12-08T21:42:59.352Z,68.20
2022-12-08T21:48:10.306Z,72.10
2022-12-08T21:50:43.646Z,75.80
2022-12-08T21:53:15.962Z,70.50
2022-12-08T21:55:48.384Z,61.00
2022-12-08T21:58:20.692Z,58.20
2022-12-08T22:00:52.916Z,72.70
2022-12-08T22:03:25.384Z,81.90
2022-12-08T22:05:58.254Z,87.20
2022-12-08T22:08:30.846Z,77.70
2022-12-08T22:11:03.163Z,84.20
2022-12-08T22:13:36.604Z,82.20
2022-12-08T22:16:11.514Z,83.90
2022-12-08T22:18:44.286Z,77.00
2022-12-08T22:21:18.784Z,68.80
2022-12-08T22:23:50.965Z,61.90
2022-12-08T22:28:54.646Z,53.50
2022-12-08T22:31:27.823Z,59.00
2022-12-08T22:34:01.651Z,63.40
2022-12-08T22:36:34.443Z,72.50
2022-12-08T22:39:06.931Z,70.30
2022-12-08T22:41:39.124Z,64.20
2022-12-08T22:46:42.790Z,58.40
2022-12-08T22:49:15.301Z,66.30
2022-12-08T22:51:47.905Z,55.90
2022-12-08T22:56:51.502Z,62.00
2022-12-08T22:59:23.917Z,59.10
2022-12-08T23:01:56.062Z,52.70
2022-12-08T23:06:58.943Z,44.60
2022-12-08T23:12:01.760Z,52.10
2022-12-08T23:17:04.563Z,55.50
2022-12-08T23:22:08.485Z,52.90
2022-12-08T23:24:40.872Z,49.60
2022-12-08T23:27:12.931Z,45.80
2022-12-08T23:29:45.317Z,52.30
2022-12-08T23:32:17.564Z,45.30
2022-12-08T23:34:50.289Z,46.70
2022-12-08T23:37:22.778Z,49.80
2022-12-08T23:39:55.242Z,48.00
2022-12-08T23:42:27.501Z,55.60
2022-12-08T23:44:59.988Z,61.90
2022-12-08T23:47:32.444Z,49.80
2022-12-08T23:50:05.533Z,46.60
2022-12-08T23:52:39.817Z,45.40
2022-12-08T23:55:13.110Z,41.70
2022-12-08T23:57:45.477Z,43.50
